createdAt,value
2023-04-19T00:00:08.717Z,12.59
2023-04-19T00:02:43.403Z,12.54
2023-04-19T00:05:16.605Z,12.43
2023-04-19T00:07:51.871Z,12.49
2023-04-19T00:10:25.296Z,12.45
2023-04-19T00:12:58.160Z,12.49
2023-04-19T00:15:31.900Z,12.40
2023-04-19T00:18:05.230Z,12.40
2023-04-19T00:20:40.042Z,12.35
2023-04-19T00:23:14.401Z,12.34
2023-04-19T00:25:47.639Z,12.44
2023-04-19T00:28:20.767Z,12.32
2023-04-19T00:30:54.522Z,12.33
2023-04-19T00:33:28.155Z,12.29
2023-04-19T00:36:03.414Z,12.31
2023-04-19T00:38:38.052Z,12.31
2023-04-19T00:41:11.199Z,12.28
2023-04-19T00:43:44.349Z,12.30
2023-04-19T00:46:18.112Z,12.24
2023-04-19T00:48:52.347Z,12.13
2023-04-19T00:51:27.320Z,12.20
2023-04-19T00:54:05.112Z,12.20
2023-04-19T00:56:38.528Z,12.19
2023-04-19T00:59:12.559Z,12.13
2023-04-19T01:01:45.793Z,12.14
2023-04-19T01:04:19.260Z,12.14
2023-04-19T01:06:52.746Z,12.11
2023-04-19T01:09:26.998Z,12.10
2023-04-19T01:12:04.202Z,12.11
2023-04-19T01:14:37.936Z,12.04
2023-04-19T01:17:16.774Z,12.02
2023-04-19T01:19:50.135Z,12.04
2023-04-19T01:22:24.654Z,12.05
2023-04-19T01:24:59.148Z,11.99
2023-04-19T01:27:32.778Z,11.99
2023-04-19T01:30:06.809Z,11.99
2023-04-19T01:32:39.762Z,11.94
2023-04-19T01:35:12.629Z,11.94
2023-04-19T01:37:46.945Z,11.92
2023-04-19T01:40:20.646Z,11.93
2023-04-19T01:42:54.424Z,11.89
2023-04-19T01:45:27.828Z,11.89
2023-04-19T01:48:01.495Z,11.87
2023-04-19T01:50:34.872Z,11.83
2023-04-19T01:53:11.225Z,11.88
2023-04-19T01:55:44.017Z,11.83
2023-04-19T01:58:17.508Z,11.82
2023-04-19T02:00:51.886Z,11.81
2023-04-19T02:03:25.291Z,11.82
2023-04-19T02:05:58.502Z,11.82
2023-04-19T02:08:33.785Z,11.78
2023-04-19T02:11:08.202Z,11.80
2023-04-19T02:13:42.033Z,11.79
2023-04-19T02:16:16.874Z,11.78
2023-04-19T02:18:51.115Z,11.73
2023-04-19T02:21:30.528Z,11.71
2023-04-19T02:24:04.972Z,11.63
2023-04-19T02:26:38.555Z,11.63
2023-04-19T02:29:11.864Z,11.68
2023-04-19T02:31:46.595Z,11.61
2023-04-19T02:34:19.552Z,11.63
2023-04-19T02:36:52.361Z,11.65
2023-04-19T02:39:26.529Z,11.56
2023-04-19T02:41:59.374Z,11.51
2023-04-19T02:44:32.625Z,11.56
2023-04-19T02:47:05.617Z,11.54
2023-04-19T02:49:41.504Z,11.59
2023-04-19T02:52:15.773Z,11.52
2023-04-19T02:54:49.954Z,11.50
2023-04-19T02:57:22.893Z,11.55
2023-04-19T02:59:55.560Z,11.54
2023-04-19T03:02:28.630Z,11.51
2023-04-19T03:05:03.869Z,11.59
2023-04-19T03:07:39.535Z,11.56
2023-04-19T03:10:14.838Z,11.59
2023-04-19T03:12:51.682Z,11.62
2023-04-19T03:15:25.405Z,11.58
2023-04-19T03:17:58.494Z,11.62
2023-04-19T03:20:31.934Z,11.69
2023-04-19T03:23:04.760Z,11.69
2023-04-19T03:25:40.291Z,11.60
2023-04-19T03:28:24.952Z,11.69
2023-04-19T03:31:16.558Z,11.62
2023-04-19T03:33:50.753Z,11.71
2023-04-19T03:36:25.265Z,11.66
2023-04-19T03:38:58.368Z,11.71
2023-04-19T03:41:34.071Z,11.69
2023-04-19T03:44:23.753Z,11.77
2023-04-19T03:46:56.475Z,11.78
2023-04-19T03:49:39.783Z,11.79
2023-04-19T03:52:13.016Z,11.74
2023-04-19T03:54:45.888Z,11.76
2023-04-19T03:57:33.158Z,11.74
2023-04-19T04:00:10.823Z,11.83
2023-04-19T04:02:54.601Z,11.84
2023-04-19T04:05:28.750Z,11.79
2023-04-19T04:08:02.262Z,11.82
2023-04-19T04:10:35.268Z,11.85
2023-04-19T04:13:09.462Z,11.88
2023-04-19T04:15:50.849Z,11.89
2023-04-19T04:18:23.933Z,11.82
2023-04-19T04:20:56.891Z,11.78
2023-04-19T04:23:30.234Z,11.82
2023-04-19T04:26:05.517Z,11.81
2023-04-19T04:29:02.998Z,11.79
2023-04-19T04:31:38.070Z,11.85
2023-04-19T04:34:11.465Z,11.81
2023-04-19T04:36:58.034Z,11.89
2023-04-19T04:39:39.659Z,11.85
2023-04-19T04:42:17.843Z,11.84
2023-04-19T04:44:53.512Z,11.85
2023-04-19T04:47:27.420Z,11.89
2023-04-19T04:50:02.482Z,11.92
2023-04-19T04:52:36.661Z,11.96
2023-04-19T04:55:19.650Z,11.86
2023-04-19T04:57:53.925Z,11.88
2023-04-19T05:00:43.062Z,11.93
2023-04-19T05:03:16.907Z,11.92
2023-04-19T05:05:55.189Z,11.89
2023-04-19T05:08:30.020Z,11.96
2023-04-19T05:11:14.596Z,11.92
2023-04-19T05:13:49.135Z,11.89
2023-04-19T05:16:23.549Z,11.96
2023-04-19T05:18:56.524Z,11.95
2023-04-19T05:21:30.979Z,11.94
2023-04-19T05:24:04.348Z,11.98
2023-04-19T05:26:39.400Z,11.93
2023-04-19T05:29:13.424Z,11.99
2023-04-19T05:31:54.413Z,11.97
2023-04-19T05:34:34.452Z,11.98
2023-04-19T05:37:07.594Z,12.06
2023-04-19T05:39:42.355Z,12.09
2023-04-19T05:42:17.028Z,12.05
2023-04-19T05:44:49.817Z,12.05
2023-04-19T05:47:24.687Z,12.12
2023-04-19T05:50:08.935Z,12.14
2023-04-19T05:52:46.296Z,12.10
2023-04-19T05:55:20.057Z,12.17
2023-04-19T05:57:55.691Z,12.12
2023-04-19T06:00:31.408Z,12.19
2023-04-19T06:03:14.770Z,12.15
2023-04-19T06:05:47.834Z,12.19
2023-04-19T06:21:23.817Z,12.19
2023-04-19T06:30:20.461Z,12.27
2023-04-19T06:32:53.863Z,12.31
2023-04-19T06:35:26.735Z,12.40
2023-04-19T06:38:00.215Z,12.39
2023-04-19T06:40:35.514Z,12.34
2023-04-19T06:43:08.382Z,12.37
2023-04-19T06:45:42.539Z,12.37
2023-04-19T06:48:15.808Z,12.35
2023-04-19T06:50:48.539Z,12.44
2023-04-19T06:53:21.423Z,12.48
2023-04-19T06:55:59.239Z,12.48
2023-04-19T06:58:34.452Z,12.49
2023-04-19T07:01:09.327Z,12.52
2023-04-19T07:03:42.410Z,12.57
2023-04-19T07:06:17.963Z,12.71
2023-04-19T07:08:50.780Z,12.73
2023-04-19T07:11:23.621Z,12.96
2023-04-19T07:13:56.602Z,13.10
2023-04-19T07:16:31.047Z,13.26
2023-04-19T07:19:03.970Z,13.41
2023-04-19T07:21:38.506Z,13.40
2023-04-19T07:24:11.226Z,13.54
2023-04-19T07:26:44.495Z,13.67
2023-04-19T07:29:17.696Z,13.81
2023-04-19T07:31:55.386Z,13.89
2023-04-19T07:34:28.969Z,14.02
2023-04-19T07:37:02.088Z,14.19
2023-04-19T07:39:35.005Z,14.30
2023-04-19T07:42:08.014Z,14.34
2023-04-19T07:44:40.920Z,14.44
2023-04-19T07:47:15.046Z,14.59
2023-04-19T07:49:47.834Z,14.66
2023-04-19T07:52:20.634Z,14.81
2023-04-19T07:54:53.318Z,14.84
2023-04-19T07:57:26.442Z,15.02
2023-04-19T08:00:00.049Z,15.08
2023-04-19T08:02:34.571Z,15.13
2023-04-19T08:05:09.180Z,15.24
2023-04-19T08:07:44.452Z,15.26
2023-04-19T08:10:17.222Z,15.48
2023-04-19T08:16:12.934Z,15.55
2023-04-19T08:18:24.338Z,15.75
2023-04-19T08:20:58.156Z,15.87
2023-04-19T08:23:41.240Z,15.87
2023-04-19T08:26:18.208Z,16.05
2023-04-19T08:28:52.231Z,16.15
2023-04-19T08:31:25.015Z,16.33
2023-04-19T08:34:00.285Z,16.43
2023-04-19T08:36:41.149Z,16.63
2023-04-19T08:39:29.157Z,16.71
2023-04-19T08:42:11.092Z,16.84
2023-04-19T08:45:12.989Z,16.73
2023-04-19T08:47:58.928Z,17.02
2023-04-19T08:50:48.442Z,17.18
2023-04-19T08:53:30.134Z,17.44
2023-04-19T08:58:56.856Z,17.62
2023-04-19T09:01:36.243Z,17.65
2023-04-19T09:04:34.799Z,17.66
2023-04-19T09:07:03.827Z,17.82
2023-04-19T09:09:45.558Z,18.09
2023-04-19T09:12:28.687Z,18.15
2023-04-19T09:15:03.289Z,18.14
2023-04-19T09:17:37.048Z,18.31
2023-04-19T09:20:10.170Z,18.42
2023-04-19T09:22:44.240Z,18.39
2023-04-19T09:28:15.619Z,18.58
2023-04-19T09:31:02.355Z,18.50
2023-04-19T09:33:44.711Z,18.89
2023-04-19T09:36:28.898Z,19.17
2023-04-19T09:39:03.586Z,19.26
2023-04-19T09:41:39.077Z,19.12
2023-04-19T09:46:53.807Z,19.49
2023-04-19T09:49:41.614Z,19.64
2023-04-19T09:52:18.761Z,19.64
2023-04-19T09:54:55.902Z,19.79
2023-04-19T09:57:28.868Z,19.92
2023-04-19T10:00:07.080Z,19.82
2023-04-19T10:02:48.628Z,19.99
2023-04-19T10:05:24.072Z,20.29
2023-04-19T10:08:00.123Z,20.30
2023-04-19T10:10:41.925Z,20.38
2023-04-19T10:13:24.859Z,20.27
2023-04-19T10:16:08.277Z,20.38
2023-04-19T10:18:51.116Z,20.65
2023-04-19T10:21:24.888Z,20.87
2023-04-19T10:23:58.376Z,20.97
2023-04-19T10:27:12.819Z,21.06
2023-04-19T10:30:04.591Z,21.42
2023-04-19T10:32:41.603Z,21.40
2023-04-19T10:35:20.583Z,21.30
2023-04-19T10:38:12.067Z,21.39
2023-04-19T10:41:00.557Z,21.56
2023-04-19T10:43:35.366Z,21.69
2023-04-19T10:46:09.606Z,21.80
2023-04-19T10:48:53.769Z,21.87
2023-04-19T10:51:29.143Z,21.98
2023-04-19T10:54:03.328Z,21.69
2023-04-19T10:57:00.212Z,21.79
2023-04-19T10:59:35.178Z,21.91
2023-04-19T11:02:29.442Z,22.00
2023-04-19T11:05:04.250Z,22.17
2023-04-19T11:07:41.887Z,22.17
2023-04-19T11:10:14.771Z,22.23
2023-04-19T11:12:47.366Z,22.30
2023-04-19T11:15:23.287Z,22.44
2023-04-19T11:18:11.438Z,22.40
2023-04-19T11:20:45.581Z,22.47
2023-04-19T11:23:18.923Z,22.75
2023-04-19T11:25:52.587Z,22.73
2023-04-19T11:28:25.694Z,22.62
2023-04-19T11:30:59.928Z,22.50
2023-04-19T11:33:34.538Z,22.66
2023-04-19T11:36:13.031Z,22.92
2023-04-19T11:38:48.739Z,22.99
2023-04-19T11:41:21.792Z,22.77
2023-04-19T11:43:54.566Z,23.03
2023-04-19T11:46:28.806Z,22.72
2023-04-19T11:49:01.778Z,23.00
2023-04-19T11:51:34.839Z,22.97
2023-04-19T11:54:16.866Z,23.34
2023-04-19T11:57:04.587Z,23.37
2023-04-19T11:59:37.607Z,23.19
2023-04-19T12:02:13.675Z,23.36
2023-04-19T12:04:46.624Z,23.21
2023-04-19T12:07:19.248Z,23.20
2023-04-19T12:09:51.951Z,23.37
2023-04-19T12:12:34.111Z,23.13
2023-04-19T12:15:08.110Z,22.85
2023-04-19T12:17:59.883Z,23.06
2023-04-19T12:20:34.201Z,23.53
2023-04-19T12:23:11.088Z,23.69
2023-04-19T12:25:45.556Z,23.51
2023-04-19T12:28:19.214Z,23.52
2023-04-19T12:30:53.002Z,23.95
2023-04-19T12:33:27.377Z,23.80
2023-04-19T12:36:00.362Z,23.74
2023-04-19T12:38:33.120Z,24.09
2023-04-19T12:41:06.071Z,24.05
2023-04-19T12:43:39.145Z,24.14
2023-04-19T12:46:12.046Z,24.31
2023-04-19T12:48:46.423Z,24.01
2023-04-19T12:51:20.652Z,24.19
2023-04-19T12:53:53.993Z,24.45
2023-04-19T12:56:27.146Z,24.27
2023-04-19T12:59:03.402Z,23.93
2023-04-19T13:01:36.458Z,24.05
2023-04-19T13:04:12.097Z,24.31
2023-04-19T13:06:45.070Z,24.38
2023-04-19T13:09:17.865Z,24.31
2023-04-19T13:11:50.575Z,24.49
2023-04-19T13:14:23.277Z,24.09
2023-04-19T13:16:56.162Z,24.17
2023-04-19T13:19:31.270Z,24.34
2023-04-19T13:22:04.083Z,24.12
2023-04-19T13:24:36.867Z,24.63
2023-04-19T13:27:09.720Z,24.60
2023-04-19T13:29:42.401Z,24.45
2023-04-19T13:32:17.207Z,24.51
2023-04-19T13:34:51.379Z,24.34
2023-04-19T13:37:24.364Z,24.49
2023-04-19T13:40:10.676Z,24.59
2023-04-19T13:42:47.925Z,24.33
2023-04-19T13:45:20.672Z,24.63
2023-04-19T13:47:53.428Z,24.70
2023-04-19T13:50:27.878Z,24.26
2023-04-19T13:53:01.286Z,24.23
2023-04-19T13:55:35.271Z,24.64
2023-04-19T13:58:08.027Z,24.19
2023-04-19T14:00:41.146Z,24.71
2023-04-19T14:03:13.974Z,24.98
2023-04-19T14:05:48.345Z,24.62
2023-04-19T14:08:21.083Z,24.70
2023-04-19T14:10:53.972Z,24.12
2023-04-19T14:13:26.923Z,23.39
2023-04-19T14:15:59.689Z,24.22
2023-04-19T14:18:32.336Z,24.48
2023-04-19T14:21:06.705Z,24.91
2023-04-19T14:23:39.551Z,24.92
2023-04-19T14:26:12.161Z,25.10
2023-04-19T14:28:44.855Z,25.28
2023-04-19T14:31:17.750Z,25.38
2023-04-19T14:33:50.547Z,25.16
2023-04-19T14:36:24.681Z,24.91
2023-04-19T14:38:57.458Z,24.96
2023-04-19T14:41:30.309Z,24.76
2023-04-19T14:44:02.871Z,24.94
2023-04-19T14:46:35.739Z,25.15
2023-04-19T14:49:08.375Z,24.94
2023-04-19T14:51:43.062Z,24.72
2023-04-19T14:54:16.304Z,24.77
2023-04-19T14:56:49.088Z,24.73
2023-04-19T14:59:21.906Z,24.86
2023-04-19T15:01:54.559Z,25.08
2023-04-19T15:04:27.658Z,24.74
2023-04-19T15:07:01.903Z,24.70
2023-04-19T15:09:34.611Z,24.82
2023-04-19T15:12:07.350Z,24.74
2023-04-19T15:14:40.532Z,24.73
2023-04-19T15:17:13.388Z,24.65
2023-04-19T15:19:46.987Z,24.55
2023-04-19T15:22:21.321Z,24.42
2023-04-19T15:24:54.112Z,24.48
2023-04-19T15:27:26.885Z,24.47
2023-04-19T15:29:59.507Z,24.28
2023-04-19T15:32:34.254Z,24.41
2023-04-19T15:35:07.730Z,24.21
2023-04-19T15:37:43.868Z,24.18
2023-04-19T15:40:17.138Z,24.09
2023-04-19T15:42:49.977Z,23.85
2023-04-19T15:45:22.632Z,23.82
2023-04-19T15:47:55.459Z,23.63
2023-04-19T15:50:28.345Z,23.48
2023-04-19T15:53:02.455Z,23.35
2023-04-19T15:55:35.805Z,23.19
2023-04-19T15:58:09.698Z,23.11
2023-04-19T16:00:42.332Z,22.85
2023-04-19T16:03:15.234Z,22.80
2023-04-19T16:05:51.474Z,22.72
2023-04-19T16:08:25.771Z,22.67
2023-04-19T16:10:58.707Z,22.53
2023-04-19T16:13:31.619Z,22.40
2023-04-19T16:16:04.758Z,22.26
2023-04-19T16:18:37.552Z,22.18
2023-04-19T16:21:10.638Z,22.07
2023-04-19T16:23:44.683Z,21.96
2023-04-19T16:26:18.750Z,21.89
2023-04-19T16:28:51.545Z,21.76
2023-04-19T16:31:24.152Z,21.62
2023-04-19T16:33:56.948Z,21.42
2023-04-19T16:36:29.597Z,21.35
2023-04-19T16:39:03.695Z,21.20
2023-04-19T16:41:36.456Z,21.11
2023-04-19T16:44:11.344Z,20.98
2023-04-19T16:46:44.287Z,20.87
2023-04-19T16:49:17.937Z,20.83
2023-04-19T16:51:50.950Z,20.69
2023-04-19T16:54:24.950Z,20.58
2023-04-19T16:56:57.696Z,20.52
2023-04-19T16:59:30.687Z,20.38
2023-04-19T17:02:03.930Z,20.38
2023-04-19T17:04:37.078Z,20.29
2023-04-19T17:07:10.469Z,20.21
2023-04-19T17:09:44.671Z,20.08
2023-04-19T17:12:18.668Z,19.96
2023-04-19T17:14:51.578Z,19.90
2023-04-19T17:17:24.547Z,19.85
2023-04-19T17:19:57.840Z,19.76
2023-04-19T17:22:30.997Z,19.64
2023-04-19T17:25:05.937Z,19.58
2023-04-19T17:27:39.046Z,19.50
2023-04-19T17:30:12.486Z,19.49
2023-04-19T17:32:45.460Z,19.43
2023-04-19T17:35:18.342Z,19.38
2023-04-19T17:37:50.958Z,19.32
2023-04-19T17:40:25.989Z,19.24
2023-04-19T17:42:59.620Z,19.24
2023-04-19T17:45:32.432Z,19.12
2023-04-19T17:48:05.293Z,19.06
2023-04-19T17:50:38.211Z,18.98
2023-04-19T17:53:10.818Z,18.95
2023-04-19T17:55:45.810Z,18.89
2023-04-19T17:58:18.622Z,18.81
2023-04-19T18:00:51.889Z,18.70
2023-04-19T18:03:25.302Z,18.65
2023-04-19T18:05:58.225Z,18.65
2023-04-19T18:08:31.040Z,18.56
2023-04-19T18:11:05.166Z,18.51
2023-04-19T18:13:39.081Z,18.44
2023-04-19T18:16:13.530Z,18.38
2023-04-19T18:18:47.905Z,18.35
2023-04-19T18:21:20.770Z,18.34
2023-04-19T18:23:54.562Z,18.22
2023-04-19T18:26:37.403Z,18.18
2023-04-19T18:29:10.569Z,18.06
2023-04-19T18:31:43.593Z,18.04
2023-04-19T18:34:17.421Z,17.95
2023-04-19T18:36:50.120Z,17.90
2023-04-19T18:39:22.843Z,17.89
2023-04-19T18:42:19.013Z,17.82
2023-04-19T18:44:54.209Z,17.69
2023-04-19T18:47:28.466Z,17.68
2023-04-19T18:50:05.820Z,17.63
2023-04-19T18:52:39.153Z,17.61
2023-04-19T18:55:13.720Z,17.53
2023-04-19T18:57:48.208Z,17.46
2023-04-19T19:00:21.740Z,17.43
2023-04-19T19:02:55.333Z,17.35
2023-04-19T19:05:28.765Z,17.29
2023-04-19T19:08:02.340Z,17.13
2023-04-19T19:10:58.854Z,17.15
2023-04-19T19:13:29.502Z,17.14
2023-04-19T19:16:02.722Z,17.08
2023-04-19T19:18:36.001Z,16.92
2023-04-19T19:21:09.418Z,16.83
2023-04-19T19:23:42.815Z,16.79
2023-04-19T19:26:16.068Z,16.74
2023-04-19T19:28:50.349Z,16.68
2023-04-19T19:31:23.167Z,16.53
2023-04-19T19:34:14.718Z,16.55
2023-04-19T19:36:49.539Z,16.47
2023-04-19T19:39:22.331Z,16.49
2023-04-19T19:44:34.836Z,16.30
2023-04-19T19:47:10.252Z,16.22
2023-04-19T19:50:11.596Z,16.24
2023-04-19T19:52:36.790Z,16.21
2023-04-19T19:55:12.469Z,16.09
2023-04-19T20:00:44.095Z,16.01
2023-04-19T20:03:24.649Z,15.97
2023-04-19T20:08:44.550Z,15.79
2023-04-19T20:11:17.701Z,15.81
2023-04-19T20:13:50.689Z,15.87
2023-04-19T20:16:25.048Z,15.86
2023-04-19T20:18:59.465Z,15.77
2023-04-19T20:21:32.444Z,15.72
2023-04-19T20:24:05.776Z,15.65
2023-04-19T20:26:38.651Z,15.62
2023-04-19T20:29:14.520Z,15.58
2023-04-19T20:31:48.988Z,15.52
2023-04-19T20:34:21.992Z,15.44
2023-04-19T20:36:54.543Z,15.43
2023-04-19T20:39:27.624Z,15.35
2023-04-19T20:42:01.332Z,15.34
2023-04-19T20:44:34.086Z,15.28
2023-04-19T20:47:08.890Z,15.25
2023-04-19T20:49:42.099Z,15.27
2023-04-19T20:52:15.032Z,15.20
2023-04-19T20:54:47.893Z,15.17
2023-04-19T20:57:20.734Z,15.18
2023-04-19T20:59:53.520Z,14.97
2023-04-19T21:02:28.635Z,14.99
2023-04-19T21:05:01.416Z,15.01
2023-04-19T21:07:34.117Z,14.99
2023-04-19T21:10:08.027Z,14.88
2023-04-19T21:12:40.849Z,14.84
2023-04-19T21:15:13.646Z,14.85
2023-04-19T21:17:47.801Z,14.75
2023-04-19T21:20:20.837Z,14.77
2023-04-19T21:22:53.489Z,14.79
2023-04-19T21:25:26.205Z,14.69
2023-04-19T21:27:58.990Z,14.69
2023-04-19T21:30:32.852Z,14.73
2023-04-19T21:33:07.262Z,14.68
2023-04-19T21:35:40.305Z,14.67
2023-04-19T21:38:12.966Z,14.61
2023-04-19T21:40:46.357Z,14.52
2023-04-19T21:43:19.146Z,14.56
2023-04-19T21:45:52.056Z,14.57
2023-04-19T21:48:26.260Z,14.40
2023-04-19T21:50:59.050Z,14.33
2023-04-19T21:53:31.923Z,14.31
2023-04-19T21:56:05.038Z,14.27
2023-04-19T21:58:38.239Z,14.24
2023-04-19T22:01:11.763Z,14.20
2023-04-19T22:03:47.249Z,14.21
2023-04-19T22:06:21.975Z,13.98
2023-04-19T22:08:56.723Z,13.95
2023-04-19T22:11:30.318Z,13.96
2023-04-19T22:14:03.300Z,14.00
2023-04-19T22:16:35.971Z,13.94
2023-04-19T22:19:10.778Z,13.95
2023-04-19T22:21:43.542Z,13.81
2023-04-19T22:24:16.475Z,13.90
2023-04-19T22:26:50.068Z,13.87
2023-04-19T22:29:22.871Z,13.89
2023-04-19T22:31:56.144Z,13.81
2023-04-19T22:34:30.497Z,13.77
2023-04-19T22:37:03.463Z,13.70
2023-04-19T22:39:36.309Z,13.68
2023-04-19T22:42:11.145Z,13.64
2023-04-19T22:44:44.224Z,13.61
2023-04-19T22:47:17.275Z,13.48
2023-04-19T22:49:51.981Z,13.49
2023-04-19T22:52:24.991Z,13.51
2023-04-19T22:54:57.677Z,13.40
2023-04-19T22:57:30.533Z,13.39
2023-04-19T23:00:05.332Z,13.36
2023-04-19T23:02:38.774Z,13.37
2023-04-19T23:05:13.628Z,13.29
2023-04-19T23:07:46.509Z,13.28
2023-04-19T23:10:19.490Z,13.25
2023-04-19T23:12:54.237Z,13.22
2023-04-19T23:15:28.627Z,13.13
2023-04-19T23:18:02.662Z,13.13
2023-04-19T23:20:37.000Z,13.14
2023-04-19T23:23:09.877Z,13.16
2023-04-19T23:25:43.167Z,13.04
2023-04-19T23:28:15.980Z,12.94
2023-04-19T23:30:48.922Z,12.97
2023-04-19T23:33:22.085Z,13.06
2023-04-19T23:35:56.388Z,12.94
2023-04-19T23:38:29.274Z,12.91
2023-04-19T23:41:02.058Z,12.88
2023-04-19T23:43:35.686Z,12.74
2023-04-19T23:46:08.508Z,12.81
2023-04-19T23:48:41.421Z,12.79
2023-04-19T23:51:15.866Z,12.81
2023-04-19T23:53:49.572Z,12.69
2023-04-19T23:56:22.582Z,12.69
2023-04-19T23:58:55.392Z,12.64
